Festivo — EAEQ — position and weather

sailwx.info

Track history (hours):
 
Tides and Currents Weather Stations Pressure Air Temp Water Temp Dewpoint Dewpoint Depression Visibility Wind Speed Wind Dir Waves Ship Positions

Festivo

Last reported at 2017-Jul-14 03:25 UTC. Time now 2017-Jul-21 19:00 UTC.
Position N 35°26' W 002°55'.

Length 136 m; draft 4.5 m.

Type: Cargo ship. MMSI: 225410000.

Date/timePositionNaut miles runAvg speedWind from/ knotsBaromVisibWave heightAir tempDewpointWater temp
2017-Jul-14 03:25N 35°26' W 002°55'  
2017-Jul-11 09:34N 36°02' W 005°09'113.8
2017-Jul-11 09:30N 36°01' W 005°10'713.2
2017-Jul-11 09:00N 35°57' W 005°16'4 7.9
2017-Jul-11 08:28N 35°54' W 005°19'0 0.0
2017-Jul-11 07:52N 35°54' W 005°19'0 0.0
2017-Jul-11 07:28N 35°54' W 005°19'0 0.0
2017-Jul-11 06:58N 35°54' W 005°19'0 0.0
2017-Jul-11 06:28N 35°54' W 005°19'0 0.0
2017-Jul-11 05:58N 35°54' W 005°19'0 0.0
2017-Jul-11 05:28N 35°54' W 005°19'0 0.0
2017-Jul-11 04:58N 35°54' W 005°19'0 0.1
2017-Jul-11 04:30N 35°54' W 005°19'3 5.6
2017-Jul-11 04:00N 35°56' W 005°17'4 8.0
2017-Jul-11 03:30N 35°57' W 005°12'4 7.2
2017-Jul-11 02:55N 35°60' W 005°08'  
2017-Jul-08 17:06N 35°53' W 005°06'110.9
2017-Jul-08 16:59N 35°54' W 005°07'611.6
2017-Jul-08 16:30N 35°55' W 005°14'4 8.7
2017-Jul-08 16:00N 35°54' W 005°19'0 0.7
2017-Jul-08 15:30N 35°54' W 005°19'0 0.0
2017-Jul-08 15:00N 35°54' W 005°19'0 0.0
2017-Jul-08 14:00N 35°54' W 005°19'0 0.0
2017-Jul-08 13:30N 35°54' W 005°19'0 0.0
2017-Jul-08 12:57N 35°54' W 005°19'0 0.0
2017-Jul-08 12:30N 35°54' W 005°19'0 0.0
2017-Jul-08 12:00N 35°54' W 005°19'0 0.0
2017-Jul-08 11:30N 35°54' W 005°19'0 0.0
2017-Jul-08 11:00N 35°54' W 005°19'0 0.0
2017-Jul-08 10:30N 35°54' W 005°19'0 0.0
2017-Jul-08 10:00N 35°54' W 005°19'0 0.0
2017-Jul-08 09:30N 35°54' W 005°19'0 0.1
2017-Jul-08 09:01N 35°54' W 005°19'2 3.3
2017-Jul-08 08:30N 35°55' W 005°18'2 3.7
2017-Jul-08 08:00N 35°57' W 005°17'1 2.7
2017-Jul-08 07:30N 35°57' W 005°16'2 4.2
2017-Jul-08 06:59N 35°58' W 005°13'  
Track history (hours):
 
Tides and Currents Weather Stations Pressure Air Temp Water Temp Dewpoint Dewpoint Depression Visibility Wind Speed Wind Dir Waves Ship Positions

Festivo

Last reported at 2017-Jul-14 03:25 UTC. Time now 2017-Jul-21 19:00 UTC.
Position N 35°26' W 002°55'.

Length 136 m; draft 4.5 m.

Type: Cargo ship. MMSI: 225410000.

Date/timePositionNaut miles runAvg speedWind from/ knotsBaromVisibWave heightAir tempDewpointWater temp
2017-Jul-14 03:25N 35°26' W 002°55'  
2017-Jul-11 09:34N 36°02' W 005°09'113.8
2017-Jul-11 09:30N 36°01' W 005°10'713.2
2017-Jul-11 09:00N 35°57' W 005°16'4 7.9
2017-Jul-11 08:28N 35°54' W 005°19'0 0.0
2017-Jul-11 07:52N 35°54' W 005°19'0 0.0
2017-Jul-11 07:28N 35°54' W 005°19'0 0.0
2017-Jul-11 06:58N 35°54' W 005°19'0 0.0
2017-Jul-11 06:28N 35°54' W 005°19'0 0.0
2017-Jul-11 05:58N 35°54' W 005°19'0 0.0
2017-Jul-11 05:28N 35°54' W 005°19'0 0.0
2017-Jul-11 04:58N 35°54' W 005°19'0 0.1
2017-Jul-11 04:30N 35°54' W 005°19'3 5.6
2017-Jul-11 04:00N 35°56' W 005°17'4 8.0
2017-Jul-11 03:30N 35°57' W 005°12'4 7.2
2017-Jul-11 02:55N 35°60' W 005°08'  
2017-Jul-08 17:06N 35°53' W 005°06'110.9
2017-Jul-08 16:59N 35°54' W 005°07'611.6
2017-Jul-08 16:30N 35°55' W 005°14'4 8.7
2017-Jul-08 16:00N 35°54' W 005°19'0 0.7
2017-Jul-08 15:30N 35°54' W 005°19'0 0.0
2017-Jul-08 15:00N 35°54' W 005°19'0 0.0
2017-Jul-08 14:00N 35°54' W 005°19'0 0.0
2017-Jul-08 13:30N 35°54' W 005°19'0 0.0
2017-Jul-08 12:57N 35°54' W 005°19'0 0.0
2017-Jul-08 12:30N 35°54' W 005°19'0 0.0
2017-Jul-08 12:00N 35°54' W 005°19'0 0.0
2017-Jul-08 11:30N 35°54' W 005°19'0 0.0
2017-Jul-08 11:00N 35°54' W 005°19'0 0.0
2017-Jul-08 10:30N 35°54' W 005°19'0 0.0
2017-Jul-08 10:00N 35°54' W 005°19'0 0.0
2017-Jul-08 09:30N 35°54' W 005°19'0 0.1
2017-Jul-08 09:01N 35°54' W 005°19'2 3.3
2017-Jul-08 08:30N 35°55' W 005°18'2 3.7
2017-Jul-08 08:00N 35°57' W 005°17'1 2.7
2017-Jul-08 07:30N 35°57' W 005°16'2 4.2
2017-Jul-08 06:59N 35°58' W 005°13'  

Dump ship's entire track history